Flight Track Log - Related Links

Times and Time Zones

All times are in EDT time to prevent confusion due to time zone crossing. See the UAL4335 flight status page for this flight to view local times or setup timezone preferences in your user account.

Time Position Orientation Groundspeed Altitude Reporting Facility
EDT Latitude Longitude Course Direction KTS MPH feet Rate Location/Type
Mon 03:40:24 PM 40.6500 -74.1833 270° West 175 201 1,900  Level New York TRACON
Mon 03:41:19 PM 40.6333 -74.2500 252° West 242 278 3,600 2,243 Climbing New York TRACON
Mon 03:42:19 PM 40.6500 -74.3333 285° West 242 278 6,200 2,256 Climbing New York TRACON
Mon 03:43:00 PM 40.6834 -74.6805 270° West  Level FlightAware Approximate
Mon 03:43:24 PM 40.6667 -74.4333 282° West 270 311 8,300  Level New York TRACON
Mon 03:44:00 PM 40.6834 -74.8089 270° West  Level FlightAware Approximate
Mon 03:44:19 PM 40.6833 -74.5333 282° West 282 325 10,200  Level New York TRACON
Mon 03:45:00 PM 40.6833 -74.9374 270° West  Level FlightAware Approximate
Mon 03:45:19 PM 40.7333 -74.6167 308° West 320 368 11,000  Level New York TRACON
Mon 03:46:12 PM 40.7858 -74.6958 311° West 339 390 11,800 1,168 Climbing New York Center
Mon 03:47:12 PM 40.7714 -74.8183 261° West 317 365 13,200 1,300 Climbing New York Center
Mon 03:48:12 PM 40.7319 -74.9364 246° West 326 375 14,400 1,729 Climbing New York Center
Mon 03:49:10 PM 40.6925 -75.0489 245° Southwest 343 395 16,600 1,729 Climbing New York Center
Mon 03:50:10 PM 40.6469 -75.1556 241° Southwest 343 395 17,800 1,190 Climbing New York Center
Mon 03:51:11 PM 40.5950 -75.2586 236° Southwest 343 395 19,000 1,131 Climbing New York Center
Mon 03:52:12 PM 40.5431 -75.3644 237° Southwest 348 400 20,100 1,140 Climbing New York Center
Mon 03:53:12 PM 40.4886 -75.4756 237° Southwest 354 407 21,300 1,109 Climbing New York Center
Mon 03:54:11 PM 40.4361 -75.5892 239° Southwest 361 415 22,300 950 Climbing New York Center
Mon 03:55:12 PM 40.3881 -75.6950 239° Southwest 371 427 23,200 843 Climbing New York Center
Mon 03:56:12 PM 40.3331 -75.8136 239° Southwest 378 435 24,000 407 Climbing New York Center
Mon 03:57:10 PM 40.2733 -75.9369 238° Southwest 391 450 24,000  Level New York Center
Mon 03:58:11 PM 40.2178 -76.0661 241° Southwest 397 457 24,000  Level New York Center
Mon 03:59:12 PM 40.1639 -76.1978 242° Southwest 408 470 24,000  Level New York Center
Mon 04:00:10 PM 40.1053 -76.3317 240° Southwest 414 476 24,000  Level New York Center
Mon 04:01:11 PM 40.0594 -76.4664 246° West 419 482 24,000  Level New York Center
Mon 04:02:10 PM 40.0394 -76.6167 260° West 412 474 24,000  Level New York Center
Mon 04:03:11 PM 40.0242 -76.7592 262° West 412 474 24,000  Level New York Center
Mon 04:05:26 PM 39.8756 -77.0703 238° Southwest 428 493 24,000  Level Washington Center
Mon 04:06:26 PM 39.7947 -77.1928 229° Southwest 439 505 24,000  Level Washington Center
Mon 04:07:26 PM 39.7181 -77.3125 230° Southwest 444 511 24,000  Level Washington Center
Mon 04:08:26 PM 39.6456 -77.4347 232° Southwest 444 511 24,000  Level Washington Center
Mon 04:09:26 PM 39.5706 -77.5567 231° Southwest 439 505 24,000  Level Washington Center
Mon 04:10:26 PM 39.4978 -77.6758 232° Southwest 439 505 24,000  Level Washington Center
Mon 04:11:26 PM 39.4228 -77.7919 230° Southwest 439 505 24,000  Level Washington Center
Mon 04:12:26 PM 39.3558 -77.9161 235° Southwest 434 499 24,000  Level Washington Center
Mon 04:13:26 PM 39.3053 -78.0458 243° Southwest 429 494 24,000  Level Washington Center
Mon 04:14:26 PM 39.2544 -78.1781 244° Southwest 417 480 24,000  Level Washington Center
Mon 04:15:26 PM 39.2061 -78.2969 242° Southwest 412 474 24,000  Level Washington Center
Mon 04:16:26 PM 39.1531 -78.4289 243° Southwest 412 474 24,000  Level Washington Center
Mon 04:17:26 PM 39.1000 -78.5578 242° Southwest 412 474 24,000  Level Washington Center
Mon 04:18:26 PM 39.0467 -78.6892 242° Southwest 412 474 24,000  Level Washington Center
Mon 04:19:26 PM 38.9931 -78.8206 242° Southwest 417 480 24,000  Level Washington Center
Mon 04:20:26 PM 38.9394 -78.9517 242° Southwest 417 480 24,000  Level Washington Center
Mon 04:21:26 PM 38.8878 -79.0775 242° Southwest 417 480 24,000  Level Washington Center
Mon 04:22:26 PM 38.8422 -79.2111 246° West 412 474 24,000  Level Washington Center
Mon 04:23:26 PM 38.8358 -79.3522 267° West 399 459 24,000  Level Washington Center
Mon 04:24:26 PM 38.8333 -79.4958 269° West 399 459 24,000  Level Washington Center
Mon 04:25:26 PM 38.8347 -79.6453 271° West 411 473 24,000  Level Washington Center
Mon 04:26:26 PM 38.8297 -79.7861 267° West 411 473 24,000  Level Washington Center
Mon 04:28:38 PM 38.8192 -80.0850 267° West 398 458 24,000  Level Indianapolis Center
Mon 04:29:40 PM 38.8156 -80.2272 268° West 398 458 24,000  Level Indianapolis Center
Mon 04:30:42 PM 38.8103 -80.3969 268° West 396 456 24,000  Level Indianapolis Center
Mon 04:31:44 PM 38.8081 -80.5394 269° West 400 460 24,000  Level Indianapolis Center
Mon 04:32:46 PM 38.8033 -80.6808 268° West 399 459 24,000  Level Indianapolis Center
Mon 04:33:48 PM 38.7986 -80.8231 268° West 400 460 24,000  Level Indianapolis Center
Mon 04:34:50 PM 38.7847 -80.9628 263° West 396 456 24,000  Level Indianapolis Center
Mon 04:35:52 PM 38.7628 -81.1042 259° West 404 465 24,000  Level Indianapolis Center
Mon 04:36:54 PM 38.7361 -81.2728 259° West 402 463 24,000  Level Indianapolis Center
Mon 04:37:56 PM 38.7142 -81.4133 259° West 403 464 24,000  Level Indianapolis Center
Mon 04:38:58 PM 38.6928 -81.5439 258° West 406 467 24,000  Level Indianapolis Center
Mon 04:40:00 PM 38.6667 -81.7100 259° West 404 465 24,000  Level Indianapolis Center
Mon 04:41:02 PM 38.6433 -81.8500 258° West 403 464 24,000  Level Indianapolis Center
Mon 04:42:04 PM 38.6200 -81.9900 258° West 401 461 24,000  Level Indianapolis Center
Mon 04:43:06 PM 38.5969 -82.1286 258° West 401 461 24,000  Level Indianapolis Center
Mon 04:44:08 PM 38.5733 -82.2669 258° West 398 458 24,000  Level Indianapolis Center
Mon 04:45:10 PM 38.5508 -82.4047 258° West 397 457 24,000 -435 Level Indianapolis Center
Mon 04:46:12 PM 38.5233 -82.5606 257° West 392 451 23,100 -1,065 Descending Indianapolis Center
Mon 04:48:16 PM 38.5278 -82.8247 271° West 374 430 20,700 -1,387 Descending Indianapolis Center
Mon 04:49:18 PM 38.5392 -82.9600 276° West 380 437 18,800 -1,790 Descending Indianapolis Center
Mon 04:50:20 PM 38.5511 -83.1131 276° West 373 429 17,000 -1,694 Descending Indianapolis Center
Mon 04:51:22 PM 38.5619 -83.2442 276° West 371 427 15,300 -1,610 Descending Indianapolis Center
Mon 04:52:23 PM 38.5719 -83.3756 276° West 371 427 13,700 -1,610 Descending Indianapolis Center
Mon 04:53:25 PM 38.5814 -83.4997 276° West 357 411 12,000 -1,403 Descending Indianapolis Center
Mon 04:54:27 PM 38.5911 -83.6194 276° West 342 394 10,800 -968 Descending Indianapolis Center
Mon 04:55:29 PM 38.6000 -83.7375 276° West 333 383 10,000 -387 Descending Indianapolis Center
Mon 04:56:31 PM 38.6103 -83.8747 276° West 332 382 10,000  Level Indianapolis Center
Mon 04:57:32 PM 38.6447 -83.9853 292° West 343 395 10,000  Level Indianapolis Center
Mon 04:58:34 PM 38.6958 -84.0800 305° West 345 397 10,000  Level Indianapolis Center
Mon 04:59:36 PM 38.7483 -84.1833 303° West 343 395 10,000  Level Indianapolis Center
Mon 05:00:38 PM 38.8011 -84.2850 304° West 341 392 10,000  Level Indianapolis Center
Mon 05:01:39 PM 38.8542 -84.3864 304° West 338 389 10,000  Level Indianapolis Center
Mon 05:02:25 PM 38.9000 -84.4833 301° West 338 389 10,000 -57 Level Cincinnati TRACON
Mon 05:03:25 PM 38.9833 -84.5333 335° Northwest 304 350 9,900 -818 Descending Cincinnati TRACON
Mon 05:04:37 PM 39.0667 -84.5333 360° North 277 319 8,200 -1,650 Descending Cincinnati TRACON
Mon 05:05:25 PM 39.1333 -84.5333 360° North 275 316 6,600 -2,000 Descending Cincinnati TRACON
Mon 05:05:46 PM 39.1550 -84.5419 343° North 283 326 5,900 -2,024 Descending Indianapolis Center
Mon 05:06:48 PM 39.1989 -84.6117 309° West 277 319 3,800 -1,714 Descending Indianapolis Center
Mon 05:07:31 PM 39.1833 -84.6667 250° West 216 249 2,900 -1,256 Descending Cincinnati TRACON

Login

Don't have an account? Register now (free) for customized features, flight alerts, and more!